Time,TemperatureF,DewpointF,PressureIn,WindDirection,WindDirectionDegrees,WindSpeedMPH,WindSpeedGustMPH,Humidity,HourlyPrecipIn,Conditions,Clouds,dailyrainin,SoftwareType,DateUTC
2013-08-25 00:28:00,67.5,64.0,30.30,SSW,205,0.0,-999.0,88,-99.99,,,0.00,weatherlink.com 1.10,2013-08-25 04:28:00,
2013-08-25 00:41:00,66.9,64.0,30.31,SSW,205,0.0,-999.0,89,-99.99,,,0.00,weatherlink.com 1.10,2013-08-25 04:41:00,
2013-08-25 00:56:00,66.7,63.0,30.30,SSW,205,0.0,-999.0,89,-99.99,,,0.00,weatherlink.com 1.10,2013-08-25 04:56:00,
2013-08-25 01:28:00,66.6,63.0,30.30,SSW,205,0.0,-999.0,89,-99.99,,,0.00,weatherlink.com 1.10,2013-08-25 05:28:00,
2013-08-25 01:41:00,65.6,63.0,30.31,SSW,205,0.0,-999.0,91,-99.99,,,0.00,weatherlink.com 1.10,2013-08-25 05:41:00,
2013-08-25 01:56:00,65.3,63.0,30.31,SSW,205,0.0,-999.0,91,-99.99,,,0.00,weatherlink.com 1.10,2013-08-25 05:56:00,
2013-08-25 02:27:00,65.2,63.0,30.31,SSW,205,0.0,-999.0,91,-99.99,,,0.00,weatherlink.com 1.10,2013-08-25 06:27:00,
2013-08-25 02:40:00,64.6,62.0,30.30,SSW,205,0.0,-999.0,92,-99.99,,,0.00,weatherlink.com 1.10,2013-08-25 06:40:00,
2013-08-25 02:56:00,64.3,62.0,30.30,SSW,205,0.0,-999.0,92,-99.99,,,0.00,weatherlink.com 1.10,2013-08-25 06:56:00,
2013-08-25 03:27:00,64.2,62.0,30.30,SSW,205,0.0,-999.0,92,-99.99,,,0.00,weatherlink.com 1.10,2013-08-25 07:27:00,
2013-08-25 03:40:00,63.8,62.0,30.30,SSW,205,0.0,-999.0,93,-99.99,,,0.00,weatherlink.com 1.10,2013-08-25 07:40:00,
2013-08-25 03:55:00,63.7,62.0,30.30,SSW,205,0.0,-999.0,93,-99.99,,,0.00,weatherlink.com 1.10,2013-08-25 07:55:00,
2013-08-25 04:27:00,63.6,62.0,30.30,SSW,205,0.0,-999.0,93,-99.99,,,0.00,weatherlink.com 1.10,2013-08-25 08:27:00,
2013-08-25 04:40:00,63.4,61.0,30.30,SSW,205,0.0,-999.0,93,-99.99,,,0.00,weatherlink.com 1.10,2013-08-25 08:40:00,
2013-08-25 04:55:00,63.2,61.0,30.30,SSW,205,0.0,-999.0,93,-99.99,,,0.00,weatherlink.com 1.10,2013-08-25 08:55:00,
2013-08-25 05:27:00,63.2,61.0,30.31,SSW,205,0.0,-999.0,93,-99.99,,,0.00,weatherlink.com 1.10,2013-08-25 09:27:00,
2013-08-25 05:41:00,62.6,61.0,30.32,SSW,205,0.0,-999.0,94,-99.99,,,0.00,weatherlink.com 1.10,2013-08-25 09:41:00,
2013-08-25 05:56:00,62.5,61.0,30.32,SSW,205,0.0,-999.0,94,-99.99,,,0.00,weatherlink.com 1.10,2013-08-25 09:56:00,
2013-08-25 06:27:00,62.4,61.0,30.32,SSW,205,0.0,-999.0,94,-99.99,,,0.00,weatherlink.com 1.10,2013-08-25 10:27:00,
2013-08-25 06:41:00,62.1,60.0,30.34,SSW,205,0.0,-999.0,94,-99.99,,,0.00,weatherlink.com 1.10,2013-08-25 10:41:00,
2013-08-25 06:56:00,62.0,60.0,30.34,SSW,205,0.0,-999.0,94,-99.99,,,0.00,weatherlink.com 1.10,2013-08-25 10:56:00,
2013-08-25 07:27:00,62.0,60.0,30.35,SSW,205,0.0,-999.0,94,-99.99,,,0.00,weatherlink.com 1.10,2013-08-25 11:27:00,
2013-08-25 07:41:00,62.3,61.0,30.37,SSW,205,0.0,-999.0,95,-99.99,,,0.00,weatherlink.com 1.10,2013-08-25 11:41:00,
2013-08-25 07:56:00,62.6,61.0,30.37,SSW,205,0.0,-999.0,95,-99.99,,,0.00,weatherlink.com 1.10,2013-08-25 11:56:00,
2013-08-25 08:27:00,62.9,62.0,30.38,SSW,205,0.0,-999.0,95,-99.99,,,0.00,weatherlink.com 1.10,2013-08-25 12:27:00,
2013-08-25 08:41:00,64.7,63.0,30.38,SSW,205,0.0,-999.0,94,-99.99,,,0.00,weatherlink.com 1.10,2013-08-25 12:41:00,
2013-08-25 08:56:00,65.6,63.0,30.38,SSW,205,0.0,-999.0,92,-99.99,,,0.00,weatherlink.com 1.10,2013-08-25 12:56:00,
2013-08-25 09:27:00,66.0,64.0,30.38,SSW,205,0.0,-999.0,92,-99.99,,,0.00,weatherlink.com 1.10,2013-08-25 13:27:00,
2013-08-25 09:41:00,68.4,64.0,30.39,SSE,167,0.0,-999.0,86,-99.99,,,0.00,weatherlink.com 1.10,2013-08-25 13:41:00,
2013-08-25 09:56:00,69.1,65.0,30.39,SSE,167,0.0,-999.0,85,-99.99,,,0.00,weatherlink.com 1.10,2013-08-25 13:56:00,
2013-08-25 10:27:00,69.4,64.0,30.39,SSE,167,0.0,-999.0,84,-99.99,,,0.00,weatherlink.com 1.10,2013-08-25 14:27:00,
2013-08-25 10:41:00,71.5,64.0,30.40,South,186,0.0,-999.0,77,-99.99,,,0.00,weatherlink.com 1.10,2013-08-25 14:41:00,
2013-08-25 10:56:00,72.4,64.0,30.40,South,186,0.0,-999.0,76,-99.99,,,0.00,weatherlink.com 1.10,2013-08-25 14:56:00,
2013-08-25 11:27:00,72.8,64.0,30.39,SSW,210,0.0,-999.0,74,-99.99,,,0.00,weatherlink.com 1.10,2013-08-25 15:27:00,
2013-08-25 11:41:00,73.9,64.0,30.38,SW,217,0.0,-999.0,70,-99.99,,,0.00,weatherlink.com 1.10,2013-08-25 15:41:00,
2013-08-25 11:56:00,73.9,64.0,30.38,SW,217,0.0,-999.0,71,-99.99,,,0.00,weatherlink.com 1.10,2013-08-25 15:56:00,
2013-08-25 12:27:00,74.2,64.0,30.37,SW,218,1.0,-999.0,70,-99.99,,,0.00,weatherlink.com 1.10,2013-08-25 16:27:00,
2013-08-25 12:41:00,75.6,63.0,30.37,SW,228,0.0,-999.0,65,-99.99,,,0.00,weatherlink.com 1.10,2013-08-25 16:41:00,
2013-08-25 12:56:00,75.8,63.0,30.37,SSW,212,0.0,-999.0,64,-99.99,,,0.00,weatherlink.com 1.10,2013-08-25 16:56:00,
2013-08-25 13:27:00,75.9,63.0,30.37,SSW,213,0.0,-999.0,65,-99.99,,,0.00,weatherlink.com 1.10,2013-08-25 17:27:00,
2013-08-25 13:41:00,75.8,62.0,30.35,South,184,0.0,-999.0,62,-99.99,,,0.00,weatherlink.com 1.10,2013-08-25 17:41:00,
2013-08-25 13:56:00,76.0,62.0,30.35,WSW,242,0.0,-999.0,63,-99.99,,,0.00,weatherlink.com 1.10,2013-08-25 17:56:00,
2013-08-25 14:27:00,76.1,61.0,30.35,WSW,242,0.0,-999.0,60,-99.99,,,0.00,weatherlink.com 1.10,2013-08-25 18:27:00,
2013-08-25 14:41:00,76.9,61.0,30.34,SW,223,0.0,-999.0,59,-99.99,,,0.00,weatherlink.com 1.10,2013-08-25 18:41:00,
2013-08-25 14:56:00,77.3,60.0,30.34,WSW,240,1.0,-999.0,56,-99.99,,,0.00,weatherlink.com 1.10,2013-08-25 18:56:00,
2013-08-25 15:27:00,77.2,59.0,30.33,WSW,240,0.0,-999.0,54,-99.99,,,0.00,weatherlink.com 1.10,2013-08-25 19:27:00,
2013-08-25 15:41:00,77.1,60.0,30.32,WSW,239,0.0,-999.0,56,-99.99,,,0.00,weatherlink.com 1.10,2013-08-25 19:41:00,
2013-08-25 15:56:00,77.2,60.0,30.31,WSW,239,0.0,-999.0,56,-99.99,,,0.00,weatherlink.com 1.10,2013-08-25 19:56:00,
2013-08-25 16:27:00,77.0,59.0,30.31,WSW,239,0.0,-999.0,54,-99.99,,,0.00,weatherlink.com 1.10,2013-08-25 20:27:00,
2013-08-25 16:41:00,77.3,60.0,30.30,SW,225,1.0,-999.0,55,-99.99,,,0.00,weatherlink.com 1.10,2013-08-25 20:41:00,
2013-08-25 16:56:00,77.2,59.0,30.30,SW,225,1.0,-999.0,54,-99.99,,,0.00,weatherlink.com 1.10,2013-08-25 20:56:00,
2013-08-25 17:27:00,77.2,61.0,30.30,SW,225,0.0,-999.0,57,-99.99,,,0.00,weatherlink.com 1.10,2013-08-25 21:27:00,
2013-08-25 17:41:00,77.3,60.0,30.30,SW,219,1.0,-999.0,55,-99.99,,,0.00,weatherlink.com 1.10,2013-08-25 21:41:00,
2013-08-25 17:56:00,76.9,59.0,30.30,SW,219,0.0,-999.0,54,-99.99,,,0.00,weatherlink.com 1.10,2013-08-25 21:56:00,
2013-08-25 18:27:00,76.8,59.0,30.30,SW,219,0.0,-999.0,54,-99.99,,,0.00,weatherlink.com 1.10,2013-08-25 22:27:00,
2013-08-25 18:41:00,76.2,59.0,30.30,SW,219,0.0,-999.0,56,-99.99,,,0.00,weatherlink.com 1.10,2013-08-25 22:41:00,
2013-08-25 18:56:00,75.8,61.0,30.30,SW,219,0.0,-999.0,60,-99.99,,,0.00,weatherlink.com 1.10,2013-08-25 22:56:00,
2013-08-25 19:27:00,75.6,60.0,30.30,SW,219,0.0,-999.0,59,-99.99,,,0.00,weatherlink.com 1.10,2013-08-25 23:27:00,
2013-08-25 19:41:00,74.0,62.0,30.29,SW,219,0.0,-999.0,66,-99.99,,,0.00,weatherlink.com 1.10,2013-08-25 23:41:00,
2013-08-25 19:56:00,73.1,62.0,30.29,SW,219,0.0,-999.0,69,-99.99,,,0.00,weatherlink.com 1.10,2013-08-25 23:56:00,
2013-08-25 20:27:00,72.7,62.0,30.29,SW,219,0.0,-999.0,68,-99.99,,,0.00,weatherlink.com 1.10,2013-08-26 00:27:00,
2013-08-25 20:41:00,70.1,61.0,30.30,SW,219,0.0,-999.0,74,-99.99,,,0.00,weatherlink.com 1.10,2013-08-26 00:41:00,
2013-08-25 20:56:00,69.3,62.0,30.30,SW,219,0.0,-999.0,77,-99.99,,,0.00,weatherlink.com 1.10,2013-08-26 00:56:00,
2013-08-25 21:27:00,69.0,62.0,30.31,SW,219,0.0,-999.0,77,-99.99,,,0.00,weatherlink.com 1.10,2013-08-26 01:27:00,
2013-08-25 21:41:00,66.9,61.0,30.31,SW,219,0.0,-999.0,82,-99.99,,,0.00,weatherlink.com 1.10,2013-08-26 01:41:00,
2013-08-25 21:56:00,66.2,61.0,30.30,SW,219,0.0,-999.0,83,-99.99,,,0.00,weatherlink.com 1.10,2013-08-26 01:56:00,
2013-08-25 22:27:00,65.9,61.0,30.31,SW,219,0.0,-999.0,84,-99.99,,,0.00,weatherlink.com 1.10,2013-08-26 02:27:00,
2013-08-25 22:41:00,64.7,60.0,30.32,SW,219,0.0,-999.0,85,-99.99,,,0.00,weatherlink.com 1.10,2013-08-26 02:41:00,
2013-08-25 22:56:00,64.4,61.0,30.31,SW,219,0.0,-999.0,87,-99.99,,,0.00,weatherlink.com 1.10,2013-08-26 02:56:00,
2013-08-25 23:27:00,64.3,60.0,30.31,SW,219,0.0,-999.0,87,-99.99,,,0.00,weatherlink.com 1.10,2013-08-26 03:27:00,
2013-08-25 23:41:00,63.4,60.0,30.32,SW,219,0.0,-999.0,88,-99.99,,,0.00,weatherlink.com 1.10,2013-08-26 03:41:00,
2013-08-25 23:56:00,63.2,60.0,30.32,SW,219,0.0,-999.0,89,-99.99,,,0.00,weatherlink.com 1.10,2013-08-26 03:56:00,